createdAt,value
2018-12-04T00:02:26.642Z,67.41
2018-12-04T00:04:54.685Z,65.71
2018-12-04T00:07:22.809Z,69.59
2018-12-04T00:09:51.869Z,67.83
2018-12-04T00:12:31.081Z,67.48
2018-12-04T00:14:59.169Z,69.33
2018-12-04T00:17:27.232Z,66.51
2018-12-04T00:19:55.324Z,66.17
2018-12-04T00:22:23.402Z,66.24
2018-12-04T00:24:51.524Z,65.28
2018-12-04T00:27:19.577Z,64.38
2018-12-04T00:29:47.769Z,66.90
2018-12-04T00:32:15.986Z,67.98
2018-12-04T00:34:44.089Z,68.02
2018-12-04T00:37:13.302Z,66.53
2018-12-04T00:39:41.487Z,66.38
2018-12-04T00:42:09.707Z,69.52
2018-12-04T00:44:37.790Z,66.77
2018-12-04T00:47:06.006Z,65.81
2018-12-04T00:49:34.124Z,69.90
2018-12-04T00:52:02.194Z,70.20
2018-12-04T00:54:30.287Z,69.97
2018-12-04T00:56:58.601Z,69.66
2018-12-04T00:59:26.697Z,69.92
2018-12-04T01:01:54.770Z,69.13
2018-12-04T01:04:23.009Z,70.41
2018-12-04T01:06:51.190Z,70.67
2018-12-04T01:09:19.264Z,72.88
2018-12-04T01:11:47.466Z,70.87
2018-12-04T01:14:15.697Z,67.66
2018-12-04T01:16:43.835Z,72.19
2018-12-04T01:19:12.973Z,69.31
2018-12-04T01:21:41.043Z,72.05
2018-12-04T01:24:09.218Z,72.85
2018-12-04T01:26:37.331Z,71.77
2018-12-04T01:29:05.552Z,72.88
2018-12-04T01:31:33.683Z,70.56
2018-12-04T01:34:01.775Z,69.98
2018-12-04T01:36:29.871Z,71.23
2018-12-04T01:38:57.933Z,70.26
2018-12-04T01:41:26.052Z,70.08
2018-12-04T01:43:54.215Z,71.50
2018-12-04T01:46:22.262Z,70.67
2018-12-04T01:48:50.332Z,69.88
2018-12-04T01:51:18.369Z,69.31
2018-12-04T01:53:46.435Z,69.99
2018-12-04T01:56:14.567Z,70.30
2018-12-04T01:58:42.678Z,71.88
2018-12-04T02:01:10.928Z,68.39
2018-12-04T02:03:39.062Z,69.62
2018-12-04T02:06:07.324Z,67.67
2018-12-04T02:08:35.434Z,68.45
2018-12-04T02:11:03.574Z,68.83
2018-12-04T02:13:31.759Z,70.21
2018-12-04T02:15:59.883Z,71.93
2018-12-04T02:18:28.069Z,70.40
2018-12-04T02:20:56.219Z,70.38
2018-12-04T02:23:24.334Z,70.59
2018-12-04T02:25:52.484Z,68.95
2018-12-04T02:28:22.504Z,67.05
2018-12-04T02:30:50.576Z,67.03
2018-12-04T02:33:18.731Z,69.97
2018-12-04T02:35:46.893Z,69.13
2018-12-04T02:38:14.944Z,70.14
2018-12-04T02:40:43.023Z,69.40
2018-12-04T02:43:11.076Z,68.16
2018-12-04T02:45:45.663Z,70.76
2018-12-04T02:48:13.714Z,69.36
2018-12-04T02:50:41.838Z,69.33
2018-12-04T02:53:09.887Z,66.70
2018-12-04T02:55:38.025Z,70.91
2018-12-04T02:58:06.200Z,68.88
2018-12-04T03:00:34.289Z,67.96
2018-12-04T03:03:02.617Z,67.48
2018-12-04T03:05:30.675Z,67.74
2018-12-04T03:07:58.982Z,69.00
2018-12-04T03:10:27.114Z,69.72
2018-12-04T03:12:55.295Z,70.11
2018-12-04T03:15:23.414Z,71.19
2018-12-04T03:17:51.530Z,69.03
2018-12-04T03:20:19.713Z,68.67
2018-12-04T03:22:47.774Z,69.23
2018-12-04T03:25:15.851Z,67.43
2018-12-04T03:27:43.975Z,71.72
2018-12-04T03:30:12.119Z,71.78
2018-12-04T03:32:40.174Z,70.11
2018-12-04T03:35:08.581Z,70.65
2018-12-04T03:37:36.822Z,67.92
2018-12-04T03:40:06.738Z,67.31
2018-12-04T03:42:34.788Z,68.43
2018-12-04T03:45:02.922Z,66.67
2018-12-04T03:47:30.981Z,65.96
2018-12-04T03:49:59.124Z,69.15
2018-12-04T03:52:27.274Z,68.32
2018-12-04T03:54:55.399Z,69.41
2018-12-04T03:57:23.506Z,69.89
2018-12-04T03:59:51.571Z,67.31
2018-12-04T04:02:19.760Z,68.22
2018-12-04T04:04:47.850Z,66.87
2018-12-04T04:07:15.889Z,66.58
2018-12-04T04:09:44.014Z,66.89
2018-12-04T04:12:12.086Z,67.53
2018-12-04T04:14:40.225Z,68.27
2018-12-04T04:17:08.350Z,65.24
2018-12-04T04:19:36.514Z,67.41
2018-12-04T04:22:04.657Z,67.74
2018-12-04T04:24:32.840Z,67.65
2018-12-04T04:27:00.950Z,67.26
2018-12-04T04:29:28.990Z,68.24
2018-12-04T04:31:57.049Z,65.77
2018-12-04T04:34:25.086Z,68.16
2018-12-04T04:36:53.288Z,67.07
2018-12-04T04:39:21.331Z,68.33
2018-12-04T04:41:49.503Z,67.15
2018-12-04T04:44:17.601Z,65.90
2018-12-04T04:46:45.804Z,69.00
2018-12-04T04:49:13.836Z,66.48
2018-12-04T04:51:41.906Z,66.32
2018-12-04T04:54:09.945Z,67.69
2018-12-04T04:56:38.046Z,65.69
2018-12-04T04:59:06.091Z,67.60
2018-12-04T05:01:34.326Z,69.63
2018-12-04T05:04:02.443Z,65.25
2018-12-04T05:06:30.674Z,65.14
2018-12-04T05:08:58.816Z,64.94
2018-12-04T05:11:27.003Z,67.04
2018-12-04T05:13:55.129Z,67.45
2018-12-04T05:16:23.174Z,67.54
2018-12-04T05:18:51.296Z,64.97
2018-12-04T05:21:19.371Z,66.08
2018-12-04T05:23:47.430Z,64.83
2018-12-04T05:26:15.507Z,64.74
2018-12-04T05:28:43.632Z,64.10
2018-12-04T05:31:11.754Z,64.96
2018-12-04T05:33:39.798Z,67.03
2018-12-04T05:36:07.879Z,64.67
2018-12-04T05:38:36.005Z,67.25
2018-12-04T05:41:04.124Z,66.35
2018-12-04T05:43:32.494Z,68.10
2018-12-04T05:46:00.533Z,65.77
2018-12-04T05:48:28.570Z,67.18
2018-12-04T05:50:56.685Z,66.01
2018-12-04T05:53:30.958Z,65.69
2018-12-04T05:55:59.026Z,65.59
2018-12-04T05:58:27.207Z,64.74
2018-12-04T06:00:55.373Z,64.97
2018-12-04T06:03:23.502Z,61.66
2018-12-04T06:05:51.703Z,62.00
2018-12-04T06:08:19.809Z,62.18
2018-12-04T06:10:48.794Z,63.08
2018-12-04T06:13:16.901Z,65.73
2018-12-04T06:15:45.022Z,64.40
2018-12-04T06:18:13.069Z,64.13
2018-12-04T06:20:41.244Z,64.47
2018-12-04T06:23:09.322Z,65.26
2018-12-04T06:25:37.371Z,61.95
2018-12-04T06:28:05.426Z,61.62
2018-12-04T06:30:33.486Z,63.52
2018-12-04T06:33:01.594Z,62.40
2018-12-04T06:35:29.728Z,60.90
2018-12-04T06:37:57.803Z,63.64
2018-12-04T06:40:25.983Z,63.77
2018-12-04T06:42:54.170Z,62.88
2018-12-04T06:45:22.253Z,64.10
2018-12-04T06:47:50.413Z,64.46
2018-12-04T06:50:18.527Z,66.48
2018-12-04T06:52:46.618Z,65.28
2018-12-04T06:55:14.681Z,64.57
2018-12-04T06:57:42.742Z,64.98
2018-12-04T07:00:11.879Z,64.24
2018-12-04T07:02:39.928Z,64.70
2018-12-04T07:05:08.057Z,64.59
2018-12-04T07:07:36.144Z,64.78
2018-12-04T07:10:04.810Z,66.05
2018-12-04T07:12:32.881Z,63.37
2018-12-04T07:15:01.022Z,64.10
2018-12-04T07:17:29.167Z,64.02
2018-12-04T07:19:57.301Z,65.23
2018-12-04T07:22:25.435Z,65.44
2018-12-04T07:24:53.586Z,63.65
2018-12-04T07:27:21.657Z,63.28
2018-12-04T07:32:31.773Z,64.19
2018-12-04T07:35:00.282Z,62.40
2018-12-04T07:37:28.406Z,63.66
2018-12-04T07:39:56.461Z,61.37
2018-12-04T07:42:24.501Z,63.24
2018-12-04T07:44:52.548Z,64.15
2018-12-04T07:47:20.659Z,62.69
2018-12-04T07:49:48.766Z,63.98
2018-12-04T07:52:16.952Z,61.58
2018-12-04T07:54:45.094Z,60.65
2018-12-04T07:57:13.145Z,62.07
2018-12-04T07:59:41.212Z,60.62
2018-12-04T08:02:09.255Z,62.58
2018-12-04T08:04:37.338Z,61.73
2018-12-04T08:07:05.445Z,62.93
2018-12-04T08:09:33.725Z,63.88
2018-12-04T08:12:01.799Z,64.80
2018-12-04T08:14:29.871Z,62.72
2018-12-04T08:16:58.006Z,62.02
2018-12-04T08:19:26.173Z,62.30
2018-12-04T08:21:54.225Z,63.25
2018-12-04T08:24:22.336Z,65.03
2018-12-04T08:26:50.721Z,64.90
2018-12-04T08:29:18.859Z,63.32
2018-12-04T08:31:46.931Z,63.04
2018-12-04T08:34:14.990Z,61.22
2018-12-04T08:36:43.280Z,58.90
2018-12-04T08:39:13.223Z,61.10
2018-12-04T08:41:41.375Z,62.31
2018-12-04T08:44:09.517Z,61.87
2018-12-04T08:46:37.574Z,63.24
2018-12-04T08:49:05.733Z,63.11
2018-12-04T08:51:33.797Z,61.00
2018-12-04T08:54:01.944Z,62.33
2018-12-04T08:56:30.086Z,61.54
2018-12-04T08:58:58.322Z,60.77
2018-12-04T09:01:26.421Z,63.13
2018-12-04T09:03:59.198Z,63.58
2018-12-04T09:06:24.703Z,62.55
2018-12-04T09:08:52.938Z,63.34
2018-12-04T09:11:21.135Z,62.55
2018-12-04T09:13:49.373Z,61.05
2018-12-04T09:16:23.289Z,60.54
2018-12-04T09:18:47.604Z,61.72
2018-12-04T09:21:15.748Z,59.77
2018-12-04T09:23:43.935Z,62.64
2018-12-04T09:26:12.104Z,64.04
2018-12-04T09:28:40.242Z,62.83
2018-12-04T09:31:08.440Z,62.25
2018-12-04T09:33:36.519Z,64.95
2018-12-04T09:36:04.739Z,63.31
2018-12-04T09:38:32.796Z,61.72
2018-12-04T09:41:00.843Z,61.87
2018-12-04T09:43:28.995Z,61.69
2018-12-04T09:45:57.037Z,60.53
2018-12-04T09:48:25.087Z,60.03
2018-12-04T09:53:34.715Z,60.25
2018-12-04T09:56:02.811Z,61.80
2018-12-04T09:58:30.898Z,61.33
2018-12-04T10:00:59.035Z,61.26
2018-12-04T10:03:27.163Z,62.07
2018-12-04T10:05:55.336Z,59.93
2018-12-04T10:08:24.597Z,61.20
2018-12-04T10:10:52.935Z,59.31
2018-12-04T10:13:20.986Z,61.12
2018-12-04T10:15:49.047Z,60.15
2018-12-04T10:18:17.163Z,61.60
2018-12-04T10:20:45.474Z,61.10
2018-12-04T10:23:13.583Z,59.36
2018-12-04T10:25:46.910Z,59.41
2018-12-04T10:28:14.951Z,59.00
2018-12-04T10:30:44.950Z,58.59
2018-12-04T10:33:13.086Z,56.38
2018-12-04T10:35:41.136Z,61.74
2018-12-04T10:38:09.368Z,59.25
2018-12-04T10:40:37.482Z,58.73
2018-12-04T10:43:05.523Z,58.57
2018-12-04T10:45:33.736Z,60.19
2018-12-04T10:48:01.778Z,58.77
2018-12-04T10:50:29.823Z,58.58
2018-12-04T10:52:57.878Z,57.73
2018-12-04T10:55:25.994Z,59.80
2018-12-04T10:57:54.106Z,57.88
2018-12-04T11:00:27.615Z,60.04
2018-12-04T11:02:59.862Z,59.65
2018-12-04T11:05:27.901Z,61.03
2018-12-04T11:07:55.966Z,61.51
2018-12-04T11:10:24.078Z,61.06
2018-12-04T11:12:52.324Z,60.62
2018-12-04T11:15:20.462Z,60.46
2018-12-04T11:17:48.537Z,59.16
2018-12-04T11:20:16.751Z,58.86
2018-12-04T11:22:44.878Z,60.09
2018-12-04T11:25:13.006Z,58.28
2018-12-04T11:27:41.111Z,59.12
2018-12-04T11:30:09.524Z,60.42
2018-12-04T11:32:37.649Z,58.03
2018-12-04T11:35:06.080Z,60.51
2018-12-04T11:37:34.144Z,58.14
2018-12-04T11:40:02.265Z,56.37
2018-12-04T11:42:30.318Z,55.74
2018-12-04T11:44:58.443Z,56.05
2018-12-04T11:47:26.565Z,56.57
2018-12-04T11:49:54.613Z,57.19
2018-12-04T11:52:22.754Z,56.93
2018-12-04T11:54:51.313Z,56.69
2018-12-04T11:57:19.814Z,57.46
2018-12-04T11:59:48.111Z,58.52
2018-12-04T12:02:16.286Z,56.80
2018-12-04T12:04:44.595Z,57.57
2018-12-04T12:07:12.735Z,57.57
2018-12-04T12:09:40.778Z,56.83
2018-12-04T12:12:09.436Z,56.64
2018-12-04T12:14:37.484Z,56.32
2018-12-04T12:17:05.610Z,53.92
2018-12-04T12:19:33.655Z,54.46
2018-12-04T12:22:01.860Z,53.16
2018-12-04T12:24:30.593Z,50.04
2018-12-04T12:26:59.412Z,51.78
2018-12-04T12:29:28.023Z,50.65
2018-12-04T12:31:56.394Z,50.89
2018-12-04T12:34:25.059Z,49.54
2018-12-04T12:36:53.127Z,50.14
2018-12-04T12:39:21.182Z,49.10
2018-12-04T12:41:49.249Z,50.28
2018-12-04T12:44:17.304Z,51.23
2018-12-04T12:46:45.371Z,50.64
2018-12-04T12:49:13.539Z,50.64
2018-12-04T12:51:41.591Z,51.25
2018-12-04T12:54:09.651Z,49.33
2018-12-04T12:56:37.785Z,49.85
2018-12-04T12:59:05.893Z,48.28
2018-12-04T13:01:33.975Z,46.79
2018-12-04T13:04:02.119Z,47.96
2018-12-04T13:06:30.245Z,49.53
2018-12-04T13:08:58.451Z,51.33
2018-12-04T13:11:27.006Z,50.67
2018-12-04T13:13:55.061Z,50.59
2018-12-04T13:16:23.118Z,51.18
2018-12-04T13:18:51.425Z,50.85
2018-12-04T13:21:19.569Z,50.09
2018-12-04T13:23:47.803Z,50.27
2018-12-04T13:26:15.937Z,51.19
2018-12-04T13:28:43.993Z,50.98
2018-12-04T13:31:12.440Z,50.60
2018-12-04T13:33:40.564Z,51.07
2018-12-04T13:36:08.811Z,52.30
2018-12-04T13:38:36.896Z,52.74
2018-12-04T13:41:05.053Z,53.94
2018-12-04T13:43:33.246Z,53.55
2018-12-04T13:46:01.309Z,53.14
2018-12-04T13:48:29.470Z,54.24
2018-12-04T13:50:57.594Z,55.12
2018-12-04T13:53:25.670Z,54.53
2018-12-04T13:55:53.822Z,56.19
2018-12-04T13:58:21.988Z,55.44
2018-12-04T14:00:50.139Z,54.89
2018-12-04T14:03:18.204Z,54.32
2018-12-04T14:05:46.363Z,54.76
2018-12-04T14:08:14.410Z,55.59
2018-12-04T14:10:42.488Z,54.92
2018-12-04T14:13:10.623Z,55.37
2018-12-04T14:15:38.816Z,56.36
2018-12-04T14:18:06.923Z,55.65
2018-12-04T14:20:35.054Z,56.35
2018-12-04T14:23:03.110Z,56.39
2018-12-04T14:25:31.231Z,57.52
2018-12-04T14:27:59.284Z,55.74
2018-12-04T14:30:27.507Z,54.97
2018-12-04T14:32:55.587Z,54.88
2018-12-04T14:35:23.722Z,55.09
2018-12-04T14:37:51.836Z,55.14
2018-12-04T14:40:19.938Z,55.81
2018-12-04T14:42:48.061Z,54.83
2018-12-04T14:45:16.126Z,56.05
2018-12-04T14:47:44.319Z,57.25
2018-12-04T14:50:12.399Z,56.08
2018-12-04T14:52:40.595Z,56.00
2018-12-04T14:55:08.830Z,54.85
2018-12-04T14:57:37.040Z,55.88
2018-12-04T15:00:06.618Z,55.89
2018-12-04T15:02:34.771Z,57.17
2018-12-04T15:05:03.022Z,56.17
2018-12-04T15:07:31.126Z,57.94
2018-12-04T15:09:59.201Z,56.83
2018-12-04T15:12:27.409Z,56.68
2018-12-04T15:14:55.546Z,56.87
2018-12-04T15:17:23.630Z,58.80
2018-12-04T15:19:51.745Z,57.88
2018-12-04T15:22:19.795Z,58.52
2018-12-04T15:24:47.940Z,58.91
2018-12-04T15:27:16.135Z,57.34
2018-12-04T15:29:44.301Z,58.28
2018-12-04T15:32:12.358Z,58.18
2018-12-04T15:34:40.425Z,57.50
2018-12-04T15:37:08.589Z,58.49
2018-12-04T15:39:37.417Z,57.84
2018-12-04T15:42:05.799Z,57.75
2018-12-04T15:44:34.016Z,57.88
2018-12-04T15:47:02.169Z,57.89
2018-12-04T15:49:30.351Z,58.08
2018-12-04T15:51:58.533Z,60.15
2018-12-04T15:54:26.844Z,59.22
2018-12-04T15:56:54.945Z,59.62
2018-12-04T15:59:23.081Z,60.07
2018-12-04T16:01:51.186Z,59.77
2018-12-04T16:04:19.371Z,59.37
2018-12-04T16:06:47.422Z,59.30
2018-12-04T16:09:15.485Z,60.22
2018-12-04T16:11:43.530Z,60.81
2018-12-04T16:14:11.679Z,59.99
2018-12-04T16:16:39.935Z,60.12
2018-12-04T16:19:08.059Z,59.45
2018-12-04T16:21:36.148Z,59.78
2018-12-04T16:24:04.310Z,60.41
2018-12-04T16:26:32.361Z,61.27
2018-12-04T16:29:00.542Z,60.51
2018-12-04T16:31:28.599Z,60.97
2018-12-04T16:33:56.653Z,60.30
2018-12-04T16:36:25.114Z,60.96
2018-12-04T16:38:53.247Z,60.21
2018-12-04T16:41:21.363Z,61.92
2018-12-04T16:43:49.885Z,60.46
2018-12-04T16:46:18.078Z,61.03
2018-12-04T16:48:46.141Z,60.29
2018-12-04T16:51:14.284Z,60.21
2018-12-04T16:53:42.421Z,61.02
2018-12-04T16:56:10.477Z,60.83
2018-12-04T16:58:38.577Z,61.36
2018-12-04T17:01:06.721Z,62.31
2018-12-04T17:03:35.058Z,60.75
2018-12-04T17:06:04.869Z,61.01
2018-12-04T17:08:33.271Z,60.89
2018-12-04T17:11:01.793Z,60.32
2018-12-04T17:13:29.865Z,61.28
2018-12-04T17:15:58.104Z,61.08
2018-12-04T17:18:26.246Z,61.55
2018-12-04T17:20:54.400Z,61.99
2018-12-04T17:23:22.505Z,61.05
2018-12-04T17:25:50.574Z,62.33
2018-12-04T17:28:18.629Z,60.62
2018-12-04T17:30:46.745Z,59.81
2018-12-04T17:33:15.888Z,60.34
2018-12-04T17:35:43.936Z,60.48
2018-12-04T17:38:12.039Z,59.99
2018-12-04T17:40:40.179Z,59.83
2018-12-04T17:43:08.298Z,60.26
2018-12-04T17:45:36.439Z,59.95
2018-12-04T17:48:04.549Z,60.31
2018-12-04T17:50:32.613Z,60.10
2018-12-04T17:53:00.799Z,60.38
2018-12-04T17:55:28.907Z,60.48
2018-12-04T17:57:56.945Z,60.36
2018-12-04T18:00:25.054Z,60.73
2018-12-04T18:02:53.115Z,61.06
2018-12-04T18:05:21.183Z,61.64
2018-12-04T18:07:49.230Z,62.13
2018-12-04T18:10:17.289Z,60.79
2018-12-04T18:12:45.332Z,60.79
2018-12-04T18:15:13.922Z,60.50
2018-12-04T18:17:43.171Z,60.52
2018-12-04T18:20:11.283Z,60.07
2018-12-04T18:22:39.351Z,60.28
2018-12-04T18:25:07.496Z,62.05
2018-12-04T18:30:17.073Z,64.03
2018-12-04T18:32:45.128Z,65.06
2018-12-04T18:35:13.365Z,65.58
2018-12-04T18:37:41.485Z,64.75
2018-12-04T18:40:09.887Z,64.22
2018-12-04T18:42:37.953Z,64.17
2018-12-04T18:45:07.686Z,62.98
2018-12-04T18:47:35.822Z,62.36
2018-12-04T18:50:05.200Z,61.41
2018-12-04T18:52:33.278Z,60.52
2018-12-04T18:55:01.387Z,60.93
2018-12-04T18:57:29.467Z,61.32
2018-12-04T18:59:57.540Z,61.99
2018-12-04T19:02:25.627Z,62.17
2018-12-04T19:04:53.713Z,62.22
2018-12-04T19:07:21.848Z,64.34
2018-12-04T19:09:49.906Z,63.87
2018-12-04T19:12:18.049Z,63.68
2018-12-04T19:14:46.103Z,62.36
2018-12-04T19:17:14.213Z,62.41
2018-12-04T19:19:42.331Z,62.49
2018-12-04T19:22:10.403Z,61.27
2018-12-04T19:24:38.583Z,62.12
2018-12-04T19:27:08.050Z,61.42
2018-12-04T19:29:36.296Z,61.23
2018-12-04T19:32:04.408Z,61.12
2018-12-04T19:34:32.455Z,62.06
2018-12-04T19:37:00.563Z,62.15
2018-12-04T19:39:28.629Z,62.24
2018-12-04T19:41:56.683Z,62.16
2018-12-04T19:44:24.807Z,61.73
2018-12-04T19:46:52.921Z,61.99
2018-12-04T19:49:20.966Z,61.05
2018-12-04T19:51:49.020Z,61.47
2018-12-04T19:54:17.127Z,61.45
2018-12-04T19:56:45.279Z,61.63
2018-12-04T19:59:13.369Z,61.78
2018-12-04T20:01:41.478Z,61.59
2018-12-04T20:04:09.890Z,61.61
2018-12-04T20:06:37.933Z,62.36
2018-12-04T20:09:07.521Z,63.09
2018-12-04T20:11:35.587Z,62.42
2018-12-04T20:14:03.821Z,61.32
2018-12-04T20:16:32.204Z,60.67
2018-12-04T20:19:00.302Z,60.72
2018-12-04T20:21:28.473Z,60.85
2018-12-04T20:23:56.519Z,60.97
2018-12-04T20:26:24.615Z,60.96
2018-12-04T20:28:52.651Z,63.18
2018-12-04T20:31:21.022Z,65.69
2018-12-04T20:33:49.061Z,63.13
2018-12-04T20:36:17.181Z,61.97
2018-12-04T20:38:45.424Z,62.50
2018-12-04T20:41:13.479Z,61.32
2018-12-04T20:43:41.603Z,60.46
2018-12-04T20:46:09.714Z,59.96
2018-12-04T20:48:37.763Z,59.77
2018-12-04T20:51:05.896Z,60.03
2018-12-04T20:53:33.971Z,60.00
2018-12-04T20:56:03.106Z,61.19
2018-12-04T20:58:31.234Z,60.92
2018-12-04T21:00:59.466Z,60.58
2018-12-04T21:03:27.523Z,60.83
2018-12-04T21:05:55.619Z,60.63
2018-12-04T21:08:24.283Z,60.68
2018-12-04T21:10:52.409Z,60.22
2018-12-04T21:13:20.469Z,59.73
2018-12-04T21:15:48.511Z,59.68
2018-12-04T21:18:16.642Z,61.68
2018-12-04T21:20:44.808Z,61.00
2018-12-04T21:23:12.859Z,61.95
2018-12-04T21:25:40.982Z,61.44
2018-12-04T21:28:14.836Z,62.29
2018-12-04T21:30:48.211Z,62.79
2018-12-04T21:33:21.779Z,63.24
2018-12-04T21:35:55.510Z,63.03
2018-12-04T21:38:29.265Z,61.99
2018-12-04T21:41:08.993Z,62.43
2018-12-04T21:43:42.360Z,62.64
2018-12-04T21:46:15.945Z,63.20
2018-12-04T21:48:43.996Z,62.36
2018-12-04T21:51:12.040Z,62.30
2018-12-04T21:53:40.152Z,62.87
2018-12-04T21:56:08.270Z,62.22
2018-12-04T21:58:36.314Z,63.25
2018-12-04T22:01:04.565Z,63.25
2018-12-04T22:03:32.637Z,63.04
2018-12-04T22:06:01.809Z,62.72
2018-12-04T22:08:30.069Z,61.94
2018-12-04T22:10:58.187Z,62.68
2018-12-04T22:13:27.239Z,62.70
2018-12-04T22:15:55.282Z,62.82
2018-12-04T22:18:23.320Z,60.72
2018-12-04T22:20:51.483Z,60.65
2018-12-04T22:23:20.297Z,60.56
2018-12-04T22:25:48.462Z,60.83
2018-12-04T22:28:16.489Z,60.44
2018-12-04T22:30:45.151Z,60.14
2018-12-04T22:33:13.205Z,60.95
2018-12-04T22:35:41.252Z,61.72
2018-12-04T22:38:09.295Z,60.66
2018-12-04T22:40:37.398Z,60.71
2018-12-04T22:43:05.729Z,61.94
2018-12-04T22:45:33.754Z,60.97
2018-12-04T22:48:01.807Z,60.42
2018-12-04T22:50:29.993Z,60.26
2018-12-04T22:52:58.031Z,60.25
2018-12-04T22:55:26.071Z,61.24
2018-12-04T22:57:54.162Z,61.91
2018-12-04T23:00:27.806Z,60.21
2018-12-04T23:02:55.914Z,61.55
2018-12-04T23:05:24.018Z,59.94
2018-12-04T23:07:52.055Z,59.87
2018-12-04T23:10:20.098Z,60.42
2018-12-04T23:12:48.261Z,59.94
2018-12-04T23:15:16.300Z,61.07
2018-12-04T23:17:44.331Z,64.24
2018-12-04T23:20:12.488Z,62.06
2018-12-04T23:22:40.596Z,61.84
2018-12-04T23:25:08.631Z,62.24
2018-12-04T23:27:36.824Z,62.70
2018-12-04T23:30:05.770Z,63.16
2018-12-04T23:32:33.892Z,62.94
2018-12-04T23:35:02.006Z,62.83
2018-12-04T23:37:30.062Z,62.93
2018-12-04T23:39:58.104Z,63.95
2018-12-04T23:42:26.131Z,62.55
2018-12-04T23:44:54.154Z,62.37
2018-12-04T23:47:22.202Z,63.00
2018-12-04T23:49:50.245Z,63.70
2018-12-04T23:52:18.296Z,62.37
2018-12-04T23:54:46.348Z,61.85
2018-12-04T23:57:14.397Z,61.47
2018-12-04T23:59:42.426Z,61.60
